Time;durP1;ratioP1;P1;durP2;ratioP2;P2;SDS_P1;SDS_P2;PMS_P1;PMS_P2;Temp;Humidity;BMP_temperature;BMP_pressure;BME280_temperature;BME280_humidity;BME280_pressure;Samples;Min_cycle;Max_cycle;Signal;HPM_P1;HPM_P2
2022/12/14 00:00:57;;;;;;;5.70;3.75;;;19.10;54.70;;;;;;5039303;27;91952;-85
2022/12/14 00:03:23;;;;;;;8.10;4.60;;;19.10;54.60;;;;;;5050836;27;93332;-89
2022/12/14 00:05:49;;;;;;;8.18;4.10;;;19.10;54.50;;;;;;5051444;27;93105;-84
2022/12/14 00:08:16;;;;;;;6.30;4.22;;;19.10;54.60;;;;;;5050537;27;93557;-83
2022/12/14 00:10:42;;;;;;;6.47;3.88;;;19.10;54.70;;;;;;5056532;27;92008;-86
2022/12/14 00:13:15;;;;;;;6.93;4.47;;;19.10;54.70;;;;;;5052134;27;92712;-84
2022/12/14 00:15:41;;;;;;;5.68;3.92;;;19.10;54.70;;;;;;5054059;27;92873;-86
2022/12/14 00:18:08;;;;;;;5.90;4.38;;;19.00;54.60;;;;;;5051082;27;92032;-84
2022/12/14 00:20:33;;;;;;;4.53;3.45;;;19.00;54.70;;;;;;5053326;27;92420;-85
2022/12/14 00:22:59;;;;;;;5.65;3.60;;;19.00;54.70;;;;;;5053875;27;93590;-82
2022/12/14 00:25:25;;;;;;;5.18;3.72;;;18.90;54.70;;;;;;5052207;27;93108;-86
2022/12/14 00:27:51;;;;;;;5.90;3.95;;;18.90;54.80;;;;;;5054597;27;92469;-84
2022/12/14 00:30:19;;;;;;;5.05;3.67;;;18.90;54.80;;;;;;5055035;27;92653;-84
2022/12/14 00:32:45;;;;;;;5.45;3.97;;;18.90;54.80;;;;;;5052196;27;93782;-83
2022/12/14 00:35:13;;;;;;;6.10;4.35;;;18.90;55.00;;;;;;5053744;27;93508;-83
2022/12/14 00:37:39;;;;;;;6.00;4.15;;;18.90;54.80;;;;;;5035633;27;92797;-85
2022/12/14 00:40:07;;;;;;;5.80;4.00;;;18.80;54.70;;;;;;5053520;27;92516;-83
2022/12/14 00:42:33;;;;;;;4.15;3.40;;;18.80;54.70;;;;;;5053090;27;93005;-83
2022/12/14 00:44:59;;;;;;;7.78;4.40;;;18.80;54.90;;;;;;5053418;27;92896;-84
2022/12/14 00:47:24;;;;;;;5.75;3.97;;;18.70;54.70;;;;;;5054009;27;92334;-84
2022/12/14 00:49:50;;;;;;;5.03;3.45;;;18.80;54.80;;;;;;5053382;27;91800;-84
2022/12/14 00:52:16;;;;;;;5.90;3.88;;;18.80;54.90;;;;;;5052482;27;94332;-85
2022/12/14 00:54:41;;;;;;;5.57;3.83;;;18.70;54.80;;;;;;5054834;27;93678;-84
2022/12/14 00:57:07;;;;;;;5.80;3.90;;;18.70;54.80;;;;;;5053417;27;93356;-86
2022/12/14 00:59:33;;;;;;;5.70;3.75;;;18.70;54.90;;;;;;5034828;27;92420;-82
2022/12/14 01:01:59;;;;;;;4.93;3.90;;;18.70;54.70;;;;;;5051980;27;93155;-84
2022/12/14 01:04:25;;;;;;;5.43;3.88;;;18.70;54.80;;;;;;5055220;27;92291;-83
2022/12/14 01:06:52;;;;;;;5.30;4.20;;;18.70;54.70;;;;;;5052435;27;92574;-82
2022/12/14 01:09:19;;;;;;;5.78;4.05;;;18.60;54.70;;;;;;5052226;27;92118;-84
2022/12/14 01:11:45;;;;;;;6.70;4.35;;;18.60;54.60;;;;;;5053863;27;93077;-83
2022/12/14 01:14:14;;;;;;;5.30;3.83;;;18.60;54.80;;;;;;5052857;27;92237;-81
2022/12/14 01:16:40;;;;;;;5.90;4.20;;;18.60;54.70;;;;;;5052732;27;92618;-85
2022/12/14 01:19:06;;;;;;;4.75;3.88;;;18.60;54.70;;;;;;5052453;27;92473;-85
2022/12/14 01:21:33;;;;;;;4.80;3.50;;;18.60;54.80;;;;;;5051414;27;94139;-84
2022/12/14 01:24:01;;;;;;;5.43;4.70;;;18.60;55.00;;;;;;5051977;27;94220;-84
2022/12/14 01:26:28;;;;;;;4.18;3.22;;;18.50;54.80;;;;;;5053150;27;92064;-85
2022/12/14 01:28:57;;;;;;;5.53;4.30;;;18.50;54.80;;;;;;5056286;27;92192;-84
2022/12/14 01:31:25;;;;;;;4.93;3.78;;;18.50;54.90;;;;;;5051338;27;93646;-84
2022/12/14 01:33:52;;;;;;;4.70;3.53;;;18.50;54.80;;;;;;5052713;27;93256;-82
2022/12/14 01:36:20;;;;;;;5.25;3.58;;;18.50;54.80;;;;;;5054517;27;92587;-83
2022/12/14 01:38:47;;;;;;;4.03;3.33;;;18.50;55.00;;;;;;5051468;27;91423;-83
2022/12/14 01:41:36;;;;;;;5.10;3.75;;;18.50;55.10;;;;;;5049928;27;92420;-82
2022/12/14 01:44:03;;;;;;;5.25;3.83;;;18.40;54.90;;;;;;5051142;27;92655;-83
2022/12/14 01:46:34;;;;;;;5.40;3.97;;;18.50;55.00;;;;;;5050389;27;92982;-84
2022/12/14 01:49:16;;;;;;;5.40;3.90;;;18.40;54.90;;;;;;5051862;27;92543;-82
2022/12/14 01:51:47;;;;;;;4.63;3.75;;;18.40;55.00;;;;;;5053101;27;93244;-84
2022/12/14 01:54:14;;;;;;;4.40;3.55;;;18.40;54.90;;;;;;5054434;27;92869;-85
2022/12/14 01:56:43;;;;;;;5.18;3.40;;;18.40;55.10;;;;;;5054534;27;92887;-82
2022/12/14 01:59:13;;;;;;;5.13;3.90;;;18.40;55.10;;;;;;5051196;27;92216;-84
2022/12/14 02:01:39;;;;;;;4.32;3.55;;;18.40;55.00;;;;;;5053469;27;94112;-85
2022/12/14 02:04:06;;;;;;;5.88;3.60;;;18.40;54.90;;;;;;5052088;27;92430;-83
2022/12/14 02:06:35;;;;;;;4.22;3.45;;;18.40;54.90;;;;;;5033032;27;92255;-83
2022/12/14 02:09:06;;;;;;;4.30;3.28;;;18.30;54.80;;;;;;5051819;27;92492;-83
2022/12/14 02:11:56;;;;;;;5.32;3.92;;;18.30;54.90;;;;;;5050659;27;94099;-84
2022/12/14 02:14:23;;;;;;;4.65;3.63;;;18.30;54.90;;;;;;5054632;27;94314;-83
2022/12/14 02:16:56;;;;;;;5.28;3.85;;;18.30;55.00;;;;;;5035047;27;92374;-82
2022/12/14 02:19:22;;;;;;;6.65;3.90;;;18.30;54.90;;;;;;5054284;27;92029;-83
2022/12/14 02:22:30;;;;;;;3.90;3.42;;;18.30;55.00;;;;;;5052156;27;93251;-84
2022/12/14 02:25:14;;;;;;;4.15;3.10;;;18.30;55.00;;;;;;5050458;27;94546;-82
2022/12/14 02:28:15;;;;;;;3.90;3.28;;;18.30;54.90;;;;;;5051095;27;92620;-83
2022/12/14 02:30:43;;;;;;;4.00;3.35;;;18.30;55.00;;;;;;4977930;28;91810;-83
2022/12/14 02:33:29;;;;;;;4.53;3.40;;;18.20;55.00;;;;;;4970777;28;96646;-84
2022/12/14 02:36:19;;;;;;;7.07;3.50;;;18.30;55.00;;;;;;4979216;28;93556;-83
2022/12/14 02:39:01;;;;;;;4.22;3.47;;;18.30;54.80;;;;;;4978576;28;93284;-85
2022/12/14 02:41:39;;;;;;;4.80;3.40;;;18.30;54.90;;;;;;4978337;28;101054;-84
2022/12/14 02:44:33;;;;;;;3.95;3.03;;;18.20;54.90;;;;;;4978271;28;93458;-84
2022/12/14 02:47:24;;;;;;;5.20;3.60;;;18.30;54.90;;;;;;4940005;28;93344;-82
2022/12/14 02:50:11;;;;;;;5.15;3.60;;;18.30;55.00;;;;;;4940624;28;92689;-85
2022/12/14 02:53:16;;;;;;;4.35;3.53;;;18.30;54.90;;;;;;4940989;28;92507;-83
2022/12/14 02:55:50;;;;;;;4.30;3.42;;;18.20;54.80;;;;;;4940355;28;98010;-83
2022/12/14 02:58:20;;;;;;;4.38;3.67;;;18.20;55.00;;;;;;4940807;28;93832;-84
2022/12/14 03:00:46;;;;;;;4.45;3.38;;;18.20;54.90;;;;;;4941079;28;92733;-83
2022/12/14 03:03:12;;;;;;;3.50;3.10;;;18.20;55.00;;;;;;4940777;28;93097;-85
2022/12/14 03:05:38;;;;;;;3.40;3.05;;;18.20;54.90;;;;;;4939286;28;94019;-84
2022/12/14 03:08:09;;;;;;;4.38;3.72;;;18.20;54.80;;;;;;4957508;28;94069;-83
2022/12/14 03:10:40;;;;;;;4.88;3.50;;;18.20;54.90;;;;;;4971398;28;92922;-84
2022/12/14 03:13:14;;;;;;;3.78;3.20;;;18.20;55.00;;;;;;4967874;28;92078;-84
2022/12/14 03:15:43;;;;;;;3.60;3.10;;;18.20;54.80;;;;;;4971838;28;93427;-85
2022/12/14 03:18:14;;;;;;;5.17;3.93;;;18.20;54.90;;;;;;4972750;28;93212;-83
2022/12/14 03:20:41;;;;;;;4.05;3.40;;;18.20;54.90;;;;;;4972600;28;93029;-82
2022/12/14 03:23:16;;;;;;;5.25;3.70;;;18.10;54.70;;;;;;4982013;27;92857;-84
2022/12/14 03:26:07;;;;;;;3.47;2.80;;;18.10;54.80;;;;;;5034101;27;92611;-84
2022/12/14 03:28:46;;;;;;;3.65;3.13;;;18.20;55.00;;;;;;5034361;27;97160;-85
2022/12/14 03:31:19;;;;;;;3.97;3.20;;;18.20;55.00;;;;;;5034667;27;92932;-82
2022/12/14 03:33:47;;;;;;;3.85;2.88;;;18.20;54.90;;;;;;5035965;27;92623;-85
2022/12/14 03:36:17;;;;;;;4.80;3.75;;;18.20;54.90;;;;;;5036120;27;97410;-84
2022/12/14 03:38:49;;;;;;;4.10;2.92;;;18.20;55.00;;;;;;5034159;27;93072;-84
2022/12/14 03:41:15;;;;;;;3.78;3.03;;;18.20;54.90;;;;;;5033066;27;91986;-84
2022/12/14 03:44:03;;;;;;;4.13;3.10;;;18.20;54.90;;;;;;5017656;27;92642;-84
2022/12/14 03:47:02;;;;;;;4.93;3.50;;;18.20;54.80;;;;;;5033663;27;99436;-85
2022/12/14 03:49:55;;;;;;;5.03;3.63;;;18.10;54.80;;;;;;5031086;27;98407;-83
2022/12/14 03:52:52;;;;;;;4.10;3.10;;;18.10;54.90;;;;;;5035137;27;92505;-86
2022/12/14 03:55:26;;;;;;;4.03;2.67;;;18.20;54.90;;;;;;5035128;27;92765;-83
2022/12/14 03:58:07;;;;;;;4.20;3.17;;;18.10;54.80;;;;;;5033736;27;94487;-82
2022/12/14 04:00:42;;;;;;;5.22;3.17;;;18.20;54.80;;;;;;5014608;27;95207;-85
2022/12/14 04:03:22;;;;;;;3.75;2.92;;;18.20;54.80;;;;;;5036530;27;92691;-83
2022/12/14 04:05:57;;;;;;;4.35;3.20;;;18.20;54.60;;;;;;5033695;27;92980;-84
2022/12/14 04:09:04;;;;;;;3.25;2.83;;;18.10;54.80;;;;;;5033250;27;92518;-84
2022/12/14 04:20:19;;;;;;;3.53;3.00;;;18.20;54.70;;;;;;4981832;28;92980;-82
2022/12/14 04:22:51;;;;;;;4.00;3.38;;;18.20;54.20;;;;;;4982293;28;93083;-84
2022/12/14 04:31:08;;;;;;;4.40;3.53;;;18.20;54.30;;;;;;4981353;28;92267;-84
2022/12/14 04:33:46;;;;;;;3.63;2.80;;;18.20;54.10;;;;;;4981195;28;92790;-83
2022/12/14 04:36:32;;;;;;;4.25;3.20;;;18.20;54.30;;;;;;4980372;28;92443;-85
2022/12/14 04:39:04;;;;;;;3.72;3.17;;;18.20;54.30;;;;;;4981375;28;92056;-83
2022/12/14 04:41:35;;;;;;;5.43;3.15;;;18.20;54.30;;;;;;4981475;28;93861;-82
2022/12/14 04:44:12;;;;;;;3.65;3.20;;;18.20;54.20;;;;;;4981233;28;92109;-84
2022/12/14 04:46:40;;;;;;;3.63;2.90;;;18.20;54.20;;;;;;4981414;28;92747;-86
2022/12/14 04:49:09;;;;;;;3.28;2.75;;;18.20;54.00;;;;;;5022938;27;92523;-86
2022/12/14 04:52:03;;;;;;;4.55;3.08;;;18.20;54.20;;;;;;5034603;27;93964;-84
2022/12/14 04:54:39;;;;;;;2.92;2.53;;;18.10;54.00;;;;;;5032467;27;93345;-86
2022/12/14 04:57:16;;;;;;;3.67;2.72;;;18.10;54.80;;;;;;5031746;27;92455;-85
2022/12/14 04:59:43;;;;;;;3.05;2.72;;;18.20;54.20;;;;;;5034305;27;100230;-86
2022/12/14 05:02:24;;;;;;;3.47;2.97;;;18.10;54.10;;;;;;5031550;27;93202;-84
2022/12/14 05:05:19;;;;;;;3.53;2.70;;;18.20;54.20;;;;;;5033612;27;92335;-83
2022/12/14 05:08:29;;;;;;;4.28;3.08;;;18.20;54.10;;;;;;5032377;27;92035;-82
2022/12/14 05:11:28;;;;;;;3.35;3.05;;;18.20;54.20;;;;;;4952816;28;91816;-85
2022/12/14 05:13:53;;;;;;;3.22;2.80;;;18.10;53.80;;;;;;4950048;28;93289;-83
2022/12/14 05:16:22;;;;;;;3.85;2.95;;;18.10;54.20;;;;;;4949729;28;94336;-86
2022/12/14 05:18:48;;;;;;;3.50;2.63;;;18.20;54.20;;;;;;4948405;28;93277;-86
2022/12/14 05:24:00;;;;;;;3.58;2.90;;;18.20;54.10;;;;;;4960682;28;92374;-83
2022/12/14 05:26:26;;;;;;;3.17;2.88;;;18.20;54.00;;;;;;4959254;28;96810;-85
2022/12/14 05:28:53;;;;;;;3.35;2.90;;;18.20;54.10;;;;;;4961102;28;92503;-84
2022/12/14 05:31:19;;;;;;;3.78;3.05;;;18.20;54.20;;;;;;4961341;28;92760;-81
2022/12/14 05:33:45;;;;;;;3.13;2.83;;;18.20;54.20;;;;;;4959579;28;93586;-85
2022/12/14 05:36:10;;;;;;;3.30;3.00;;;18.20;54.20;;;;;;4959992;28;92724;-84
2022/12/14 05:38:36;;;;;;;3.28;2.80;;;18.20;54.10;;;;;;4960661;28;92973;-83
2022/12/14 05:41:02;;;;;;;3.17;2.45;;;18.20;54.10;;;;;;4959534;28;98930;-85
2022/12/14 05:43:27;;;;;;;3.53;2.95;;;18.10;54.80;;;;;;4960696;28;94486;-84
2022/12/14 05:46:01;;;;;;;3.85;3.00;;;18.10;54.10;;;;;;4959675;28;94109;-85
2022/12/14 05:48:27;;;;;;;3.63;2.80;;;18.20;54.10;;;;;;5013645;27;92712;-85
2022/12/14 05:50:52;;;;;;;2.78;2.53;;;18.10;54.20;;;;;;5029653;27;92029;-85
2022/12/14 05:53:18;;;;;;;3.78;2.75;;;18.10;54.20;;;;;;5032125;27;93269;-86
2022/12/14 05:55:50;;;;;;;2.72;2.30;;;18.10;54.20;;;;;;5034284;27;92822;-85
2022/12/14 05:58:16;;;;;;;3.25;2.55;;;18.10;54.10;;;;;;5031658;27;92226;-85
2022/12/14 06:00:42;;;;;;;3.83;2.72;;;18.10;54.10;;;;;;5033675;27;91764;-84
2022/12/14 06:03:08;;;;;;;3.70;2.97;;;18.20;54.10;;;;;;5029255;27;93771;-84
2022/12/14 06:05:34;;;;;;;3.35;2.90;;;18.20;54.00;;;;;;5029244;27;92839;-86
2022/12/14 06:08:00;;;;;;;2.95;2.65;;;18.20;54.10;;;;;;5030031;27;94013;-83
2022/12/14 06:10:25;;;;;;;3.90;2.83;;;18.20;54.20;;;;;;5030846;27;91962;-86
2022/12/14 06:12:51;;;;;;;2.88;2.50;;;18.20;53.80;;;;;;5033588;27;93572;-85
2022/12/14 06:15:16;;;;;;;3.70;3.03;;;18.40;52.80;;;;;;5031839;27;93315;-84
2022/12/14 06:17:43;;;;;;;3.35;3.03;;;18.50;52.10;;;;;;5032984;27;92774;-84
2022/12/14 06:20:10;;;;;;;4.35;3.35;;;18.60;51.40;;;;;;5039810;27;92694;-84
2022/12/14 06:22:36;;;;;;;5.53;3.30;;;18.70;50.70;;;;;;5052552;27;93344;-85
2022/12/14 06:25:02;;;;;;;3.78;3.10;;;18.90;50.10;;;;;;5054028;27;92917;-85
2022/12/14 06:27:27;;;;;;;4.88;3.13;;;19.00;50.70;;;;;;5051801;27;91947;-85
2022/12/14 06:30:03;;;;;;;4.22;3.15;;;19.30;50.50;;;;;;5055837;27;92595;-88
2022/12/14 06:32:29;;;;;;;4.97;3.45;;;19.40;49.10;;;;;;5054633;27;93316;-87
2022/12/14 06:34:54;;;;;;;3.97;3.15;;;19.50;47.90;;;;;;5044821;27;94254;-86
2022/12/14 06:37:20;;;;;;;3.78;2.90;;;19.60;47.80;;;;;;5054535;27;93283;-86
2022/12/14 06:39:46;;;;;;;3.85;2.78;;;19.70;48.50;;;;;;5053825;27;92665;-86
2022/12/14 06:42:11;;;;;;;4.07;2.97;;;19.80;48.60;;;;;;5051991;27;93436;-83
2022/12/14 06:44:37;;;;;;;3.17;2.65;;;19.90;48.60;;;;;;5051744;27;101065;-84
2022/12/14 06:47:02;;;;;;;5.13;2.60;;;20.00;48.60;;;;;;5052679;27;92829;-85
2022/12/14 06:49:28;;;;;;;3.42;2.47;;;20.00;48.60;;;;;;5053022;27;92562;-83
2022/12/14 06:51:54;;;;;;;3.97;2.47;;;20.00;48.40;;;;;;5057326;27;93282;-86
2022/12/14 06:54:20;;;;;;;4.60;2.90;;;20.10;48.40;;;;;;5058371;27;93265;-85
2022/12/14 06:56:46;;;;;;;3.92;2.42;;;20.00;48.40;;;;;;5056042;27;93922;-85
2022/12/14 06:59:14;;;;;;;5.00;3.40;;;20.00;48.30;;;;;;5057841;27;92669;-83
2022/12/14 07:01:40;;;;;;;2.85;2.42;;;19.90;48.40;;;;;;5036413;27;95798;-86
2022/12/14 07:04:07;;;;;;;3.65;2.63;;;19.90;48.70;;;;;;5057265;27;92971;-86
2022/12/14 07:06:39;;;;;;;3.13;2.42;;;19.90;48.70;;;;;;5056256;27;92377;-84
2022/12/14 07:09:06;;;;;;;2.80;2.50;;;19.80;48.60;;;;;;5054854;27;92366;-82
2022/12/14 07:11:32;;;;;;;3.25;2.78;;;19.80;48.90;;;;;;5057340;27;93394;-86
2022/12/14 07:14:04;;;;;;;6.03;3.28;;;19.70;49.00;;;;;;5053364;27;92797;-85
2022/12/14 07:16:30;;;;;;;2.85;2.55;;;19.70;49.50;;;;;;5057792;27;93171;-85
2022/12/14 07:18:56;;;;;;;4.38;1.98;;;19.70;49.30;;;;;;5054167;27;92402;-85
2022/12/14 07:21:22;;;;;;;3.00;2.40;;;19.60;49.50;;;;;;5055116;27;94279;-86
2022/12/14 07:23:51;;;;;;;3.58;2.30;;;19.60;49.50;;;;;;5062670;27;93133;-84
2022/12/14 07:26:22;;;;;;;2.90;2.60;;;19.60;49.40;;;;;;5057453;27;92355;-83
2022/12/14 07:28:49;;;;;;;16.48;5.50;;;19.60;49.80;;;;;;5056650;27;92779;-84
2022/12/14 07:31:20;;;;;;;23.48;6.72;;;19.50;49.10;;;;;;5055529;27;93252;-87
2022/12/14 07:33:45;;;;;;;13.18;4.50;;;19.50;48.80;;;;;;5053805;27;93103;-84
2022/12/14 07:36:14;;;;;;;20.35;5.35;;;19.60;49.70;;;;;;5056750;27;93363;-85
2022/12/14 07:38:41;;;;;;;17.47;4.47;;;19.50;50.10;;;;;;5046205;27;91692;-86
2022/12/14 07:41:11;;;;;;;19.13;4.85;;;19.50;50.10;;;;;;5037175;27;96218;-85
2022/12/14 07:43:38;;;;;;;11.38;4.78;;;19.60;50.50;;;;;;5058679;27;92067;-84
2022/12/14 07:46:08;;;;;;;18.48;6.15;;;19.70;51.00;;;;;;5055400;27;93018;-85
2022/12/14 07:48:34;;;;;;;32.55;8.57;;;19.70;50.10;;;;;;5057907;27;92313;-85
2022/12/14 07:51:03;;;;;;;19.23;6.97;;;19.70;49.20;;;;;;5056822;27;93514;-86
2022/12/14 07:53:29;;;;;;;;;;;19.70;49.00;;;;;;5055708;27;93053;-85
2022/12/14 07:55:54;;;;;;;19.60;6.75;;;19.60;48.20;;;;;;5058727;27;92019;-84
2022/12/14 07:58:20;;;;;;;21.90;7.95;;;19.60;47.90;;;;;;5057303;27;92108;-84
2022/12/14 08:00:47;;;;;;;28.48;8.38;;;19.60;47.70;;;;;;5050099;27;93688;-84
2022/12/14 08:03:12;;;;;;;17.50;7.57;;;19.60;47.90;;;;;;5057840;27;93177;-85
2022/12/14 08:05:38;;;;;;;19.65;6.85;;;19.50;47.50;;;;;;5057109;27;92540;-86
2022/12/14 08:08:04;;;;;;;18.05;7.53;;;19.60;47.30;;;;;;5059568;27;92707;-86
2022/12/14 08:10:30;;;;;;;17.08;6.93;;;19.50;47.20;;;;;;5056413;27;93492;-85
2022/12/14 08:12:55;;;;;;;18.75;7.68;;;19.60;46.20;;;;;;5037472;27;95954;-83
2022/12/14 08:15:21;;;;;;;18.23;6.63;;;19.70;45.60;;;;;;5058214;27;92431;-84
2022/12/14 08:17:47;;;;;;;21.75;7.10;;;19.80;45.80;;;;;;5038110;27;92113;-86
2022/12/14 08:20:13;;;;;;;23.25;7.32;;;19.80;46.10;;;;;;5056073;27;93960;-84
2022/12/14 08:22:39;;;;;;;18.00;7.03;;;19.80;46.70;;;;;;5040383;27;95901;-87
2022/12/14 08:25:05;;;;;;;19.85;7.35;;;19.90;45.40;;;;;;5058097;27;92092;-87
2022/12/14 08:27:30;;;;;;;25.38;7.85;;;19.90;45.10;;;;;;4996931;27;91779;-85
2022/12/14 08:29:56;;;;;;;16.90;8.25;;;19.90;45.50;;;;;;5050452;27;92725;-85
2022/12/14 08:32:21;;;;;;;20.65;7.78;;;19.80;45.70;;;;;;5055155;27;92867;-85
2022/12/14 08:34:49;;;;;;;20.02;8.40;;;19.70;45.80;;;;;;5055871;27;92973;-83
2022/12/14 08:37:15;;;;;;;13.32;7.18;;;19.70;46.10;;;;;;5056452;27;92181;-84
2022/12/14 08:39:40;;;;;;;15.20;7.43;;;19.60;46.10;;;;;;5053715;27;93143;-84
2022/12/14 08:42:06;;;;;;;19.05;8.02;;;19.60;46.00;;;;;;5054169;27;94442;-86
2022/12/14 08:44:31;;;;;;;21.77;7.28;;;19.50;46.30;;;;;;5053863;27;92127;-86
2022/12/14 08:46:57;;;;;;;16.25;6.60;;;19.60;46.60;;;;;;5054533;27;92578;-86
2022/12/14 08:49:23;;;;;;;18.15;7.07;;;19.60;46.90;;;;;;5054419;27;94958;-88
2022/12/14 08:51:48;;;;;;;13.55;7.20;;;19.60;47.30;;;;;;5055820;27;92707;-86
2022/12/14 08:54:14;;;;;;;11.38;6.28;;;19.80;47.50;;;;;;5057142;27;92481;-85
2022/12/14 08:56:40;;;;;;;17.67;6.72;;;19.90;47.40;;;;;;5057827;27;92403;-85
2022/12/14 08:59:05;;;;;;;19.33;7.05;;;19.90;47.60;;;;;;5054381;27;93682;-84
2022/12/14 09:01:31;;;;;;;15.82;6.75;;;19.90;46.80;;;;;;5057987;27;93263;-86
2022/12/14 09:04:02;;;;;;;12.40;6.35;;;19.90;46.90;;;;;;5038285;27;92314;-85
2022/12/14 09:06:28;;;;;;;12.35;5.53;;;19.90;47.50;;;;;;5055262;27;92462;-87
2022/12/14 09:08:54;;;;;;;18.08;5.70;;;20.00;48.10;;;;;;5056034;27;93136;-86
2022/12/14 09:11:20;;;;;;;11.80;6.47;;;20.00;47.90;;;;;;5055568;27;92505;-86
2022/12/14 09:13:46;;;;;;;18.25;6.65;;;20.10;47.80;;;;;;5057639;27;93225;-85
2022/12/14 09:16:15;;;;;;;17.35;6.22;;;20.10;47.60;;;;;;5055823;27;91619;-85
2022/12/14 09:18:41;;;;;;;11.73;6.20;;;20.20;47.60;;;;;;5058140;27;93615;-85
2022/12/14 09:21:10;;;;;;;10.43;5.80;;;20.20;47.50;;;;;;5053973;27;93231;-85
2022/12/14 09:23:36;;;;;;;13.20;5.70;;;20.20;47.80;;;;;;5057277;27;93349;-84
2022/12/14 09:26:09;;;;;;;13.13;6.15;;;20.30;48.30;;;;;;5056150;27;92662;-84
2022/12/14 09:28:37;;;;;;;13.45;5.45;;;20.20;47.90;;;;;;5055489;27;93462;-87
2022/12/14 09:31:06;;;;;;;14.25;6.38;;;20.20;48.30;;;;;;5056701;27;92923;-86
2022/12/14 09:33:32;;;;;;;15.60;6.40;;;20.20;47.30;;;;;;5057962;27;92374;-86
2022/12/14 09:36:10;;;;;;;9.68;6.40;;;20.20;47.30;;;;;;5056048;27;92057;-84
2022/12/14 09:38:38;;;;;;;16.88;5.70;;;20.20;46.90;;;;;;5036196;27;93799;-86
2022/12/14 09:41:06;;;;;;;12.70;5.63;;;20.20;46.40;;;;;;5049788;27;94183;-86
2022/12/14 09:43:41;;;;;;;16.42;5.97;;;20.10;47.10;;;;;;5035618;27;92344;-87
2022/12/14 09:46:09;;;;;;;16.73;5.38;;;20.10;47.60;;;;;;5027615;27;92476;-85
2022/12/14 09:48:36;;;;;;;13.03;5.33;;;20.10;47.80;;;;;;5053405;27;94768;-86
2022/12/14 09:51:02;;;;;;;12.07;5.15;;;20.10;47.80;;;;;;5053923;27;93867;-87
2022/12/14 09:53:28;;;;;;;9.35;4.70;;;20.20;47.80;;;;;;5057027;27;92450;-88
2022/12/14 09:55:55;;;;;;;9.10;4.80;;;20.30;48.00;;;;;;5054725;27;92145;-86
2022/12/14 09:58:32;;;;;;;10.10;4.68;;;20.40;48.00;;;;;;5056368;27;93137;-86
2022/12/14 10:01:22;;;;;;;12.27;5.00;;;20.50;48.20;;;;;;5054469;27;92360;-86
2022/12/14 10:03:53;;;;;;;9.27;4.80;;;20.60;48.10;;;;;;5054991;27;92482;-87
2022/12/14 10:06:48;;;;;;;11.20;5.38;;;20.60;47.80;;;;;;5037304;27;91960;-86
2022/12/14 10:09:32;;;;;;;8.27;5.32;;;20.60;47.50;;;;;;5053612;27;93836;-86
2022/12/14 10:12:26;;;;;;;11.38;5.55;;;20.70;47.30;;;;;;5055170;27;92891;-86
2022/12/14 10:15:17;;;;;;;9.57;5.45;;;20.60;47.10;;;;;;5056984;27;93980;-86
2022/12/14 10:18:13;;;;;;;9.73;5.07;;;20.60;47.10;;;;;;5057101;27;92527;-87
2022/12/14 10:20:47;;;;;;;10.40;5.70;;;20.60;47.00;;;;;;5056331;27;93414;-87
2022/12/14 10:23:19;;;;;;;9.25;5.38;;;20.60;46.70;;;;;;5054376;27;93287;-87
2022/12/14 10:25:50;;;;;;;9.57;5.45;;;20.60;46.80;;;;;;5059086;27;92220;-88
2022/12/14 10:28:23;;;;;;;10.93;5.10;;;20.60;47.20;;;;;;5060264;27;92629;-86
2022/12/14 10:30:54;;;;;;;9.25;5.63;;;20.60;47.10;;;;;;5057623;27;92680;-85
2022/12/14 10:33:28;;;;;;;8.38;5.00;;;20.60;46.60;;;;;;5057632;27;92954;-87
2022/12/14 10:35:59;;;;;;;7.50;4.75;;;20.60;47.00;;;;;;5057041;27;92062;-87
2022/12/14 10:38:31;;;;;;;7.45;4.85;;;20.60;46.90;;;;;;5049200;27;92509;-86
2022/12/14 10:41:14;;;;;;;10.13;4.68;;;20.60;46.70;;;;;;5058414;27;94057;-86
2022/12/14 10:43:58;;;;;;;8.07;4.80;;;20.70;47.20;;;;;;5060766;27;94043;-87
2022/12/14 10:46:42;;;;;;;8.13;5.10;;;20.70;46.90;;;;;;5059098;27;92248;-86
2022/12/14 10:49:19;;;;;;;10.52;4.50;;;20.70;46.60;;;;;;5058027;27;92185;-86
2022/12/14 10:51:49;;;;;;;8.10;4.80;;;20.80;46.80;;;;;;5058207;27;93871;-85
2022/12/14 10:54:29;;;;;;;8.10;4.38;;;20.80;46.60;;;;;;5058530;27;92793;-84
2022/12/14 10:56:55;;;;;;;8.27;4.53;;;20.80;47.60;;;;;;5058317;27;92464;-85
2022/12/14 10:59:21;;;;;;;8.07;4.45;;;20.80;47.30;;;;;;5056605;27;91317;-85
2022/12/14 11:02:08;;;;;;;10.45;4.68;;;20.80;47.20;;;;;;5059409;27;94035;-87
2022/12/14 11:04:48;;;;;;;7.50;4.32;;;20.70;47.30;;;;;;5060346;27;97284;-88
2022/12/14 11:07:17;;;;;;;7.80;4.18;;;20.80;47.50;;;;;;5058162;27;93470;-87
2022/12/14 11:09:43;;;;;;;8.93;4.22;;;20.80;48.00;;;;;;5058633;27;92106;-86
2022/12/14 11:12:19;;;;;;;7.07;4.00;;;20.90;48.30;;;;;;5055671;27;93110;-86
2022/12/14 11:15:03;;;;;;;6.57;4.05;;;20.90;48.20;;;;;;5059408;27;92712;-85
2022/12/14 11:17:39;;;;;;;7.10;4.47;;;21.00;48.60;;;;;;5056484;27;92375;-86
2022/12/14 11:20:07;;;;;;;6.25;3.20;;;21.10;48.60;;;;;;5058700;27;92620;-85
2022/12/14 11:22:58;;;;;;;9.93;3.72;;;21.20;48.30;;;;;;5058743;27;93418;-87
2022/12/14 11:25:33;;;;;;;8.35;4.53;;;21.20;48.00;;;;;;5064783;27;97447;-86
2022/12/14 11:28:04;;;;;;;10.63;4.72;;;21.30;47.80;;;;;;5058686;27;92616;-86
2022/12/14 11:30:29;;;;;;;9.90;4.25;;;21.30;46.40;;;;;;5046329;27;92911;-87
2022/12/14 11:32:55;;;;;;;8.45;4.32;;;21.20;46.80;;;;;;5061763;27;94299;-85
2022/12/14 11:35:21;;;;;;;10.82;4.53;;;21.30;47.40;;;;;;5058514;27;94362;-89
2022/12/14 11:37:49;;;;;;;9.45;4.13;;;21.20;47.40;;;;;;5060737;27;92383;-87
2022/12/14 11:40:24;;;;;;;10.65;4.25;;;21.20;47.40;;;;;;5061162;27;92551;-90
2022/12/14 11:42:59;;;;;;;6.97;4.05;;;21.20;48.00;;;;;;5051130;27;94180;-87
2022/12/14 11:45:27;;;;;;;7.68;3.60;;;21.20;47.80;;;;;;5057998;27;92062;-89
2022/12/14 11:48:14;;;;;;;8.20;4.40;;;21.10;48.00;;;;;;5056549;27;92767;-88
2022/12/14 11:50:45;;;;;;;11.60;4.10;;;21.10;48.00;;;;;;5058050;27;91683;-88
2022/12/14 11:53:16;;;;;;;8.98;4.30;;;21.10;48.60;;;;;;5056093;27;93074;-89
2022/12/14 11:55:51;;;;;;;9.52;4.22;;;21.10;48.90;;;;;;5058772;27;92478;-88
2022/12/14 11:58:21;;;;;;;7.45;3.92;;;21.10;48.90;;;;;;5059850;27;93291;-86
2022/12/14 12:01:01;;;;;;;7.18;3.95;;;21.10;49.00;;;;;;5056581;27;99616;-87
2022/12/14 12:03:29;;;;;;;;;;;21.10;49.40;;;;;;5055455;27;93240;-87
2022/12/14 12:06:01;;;;;;;13.18;4.45;;;21.10;49.60;;;;;;5058276;27;92504;-86
2022/12/14 12:08:30;;;;;;;9.68;4.10;;;21.20;49.00;;;;;;5055791;27;92586;-86
2022/12/14 12:11:00;;;;;;;10.13;4.05;;;21.20;48.20;;;;;;5059858;27;92311;-90
2022/12/14 12:13:38;;;;;;;10.93;4.07;;;21.30;48.40;;;;;;5056557;27;93463;-85
2022/12/14 12:16:12;;;;;;;11.40;4.53;;;21.30;48.80;;;;;;5057533;27;93049;-85
2022/12/14 12:19:15;;;;;;;9.70;3.70;;;21.30;48.70;;;;;;5057635;27;92670;-87
2022/12/14 12:21:43;;;;;;;6.50;3.45;;;21.30;48.80;;;;;;4986595;28;92058;-87
2022/12/14 12:24:15;;;;;;;10.95;3.95;;;21.40;49.30;;;;;;4983795;28;94315;-88
2022/12/14 12:26:56;;;;;;;6.00;3.67;;;21.50;49.50;;;;;;4953056;28;97123;-85
2022/12/14 12:29:27;;;;;;;6.38;3.22;;;21.50;49.50;;;;;;4983254;28;99928;-86
2022/12/14 12:32:12;;;;;;;8.93;3.60;;;21.60;49.60;;;;;;4973275;28;92129;-87
2022/12/14 12:34:50;;;;;;;8.43;3.55;;;21.60;49.80;;;;;;4978351;28;93219;-84
2022/12/14 12:37:29;;;;;;;9.77;4.43;;;21.60;49.90;;;;;;4983677;28;97487;-90
2022/12/14 12:40:13;;;;;;;8.52;3.75;;;21.60;49.70;;;;;;4965496;28;92683;-85
2022/12/14 12:43:00;;;;;;;9.80;3.72;;;21.60;49.60;;;;;;4985083;28;91244;-87
2022/12/14 12:45:46;;;;;;;6.60;3.63;;;21.60;49.70;;;;;;4984050;28;93703;-88
2022/12/14 12:48:26;;;;;;;9.27;4.22;;;21.60;49.30;;;;;;4983045;28;92298;-86
2022/12/14 12:51:00;;;;;;;8.80;4.05;;;21.60;49.40;;;;;;4984007;28;93619;-88
2022/12/14 12:53:34;;;;;;;7.00;3.67;;;21.50;49.30;;;;;;4984482;28;92929;-89
2022/12/14 12:56:08;;;;;;;9.48;3.35;;;21.50;49.40;;;;;;4982945;28;92609;-88
2022/12/14 12:58:36;;;;;;;8.23;3.70;;;21.60;49.30;;;;;;5056553;27;92915;-90
2022/12/14 13:01:27;;;;;;;5.20;3.63;;;21.60;49.30;;;;;;5055691;27;92591;-88
2022/12/14 13:03:57;;;;;;;6.60;2.90;;;21.60;49.30;;;;;;5058360;27;92959;-92
2022/12/14 13:06:29;;;;;;;11.13;3.13;;;21.60;49.60;;;;;;5055590;27;93653;-88
2022/12/14 13:09:05;;;;;;;12.55;3.70;;;21.60;49.90;;;;;;5056870;27;94353;-89
2022/12/14 13:11:37;;;;;;;6.93;3.60;;;21.70;50.00;;;;;;5053824;27;92611;-88
2022/12/14 13:14:31;;;;;;;8.52;3.75;;;21.70;50.10;;;;;;5055179;27;92873;-89
2022/12/14 13:17:04;;;;;;;9.63;3.78;;;21.80;49.60;;;;;;5037504;27;97887;-89
2022/12/14 13:19:36;;;;;;;12.18;3.72;;;21.80;49.50;;;;;;5059547;27;92315;-89
2022/12/14 13:22:03;;;;;;;8.43;3.75;;;21.80;49.60;;;;;;5059280;27;92417;-89
2022/12/14 13:24:28;;;;;;;8.93;3.90;;;21.80;49.70;;;;;;5057514;27;93062;-88
2022/12/14 13:27:09;;;;;;;7.68;3.78;;;21.80;49.60;;;;;;5056792;27;93276;-89